createdAt,value
2019-04-27T00:00:18.311Z,8.54
2019-04-27T00:03:06.114Z,8.58
2019-04-27T00:05:39.638Z,8.62
2019-04-27T00:08:18.571Z,8.66
2019-04-27T00:10:53.268Z,8.65
2019-04-27T00:13:26.289Z,8.65
2019-04-27T00:16:11.115Z,8.65
2019-04-27T00:18:49.719Z,8.74
2019-04-27T00:21:24.666Z,8.87
2019-04-27T00:23:57.284Z,8.87
2019-04-27T00:26:29.863Z,8.90
2019-04-27T00:29:03.691Z,8.90
2019-04-27T00:31:37.819Z,8.87
2019-04-27T00:34:13.344Z,8.90
2019-04-27T00:36:47.297Z,8.92
2019-04-27T00:39:23.082Z,8.95
2019-04-27T00:41:55.786Z,9.01
2019-04-27T00:44:31.466Z,9.00
2019-04-27T00:47:05.459Z,9.04
2019-04-27T00:49:38.545Z,9.03
2019-04-27T00:52:13.891Z,9.01
2019-04-27T00:54:48.151Z,9.03
2019-04-27T00:57:26.331Z,8.98
2019-04-27T00:59:58.397Z,8.91
2019-04-27T01:02:43.575Z,8.91
2019-04-27T01:05:23.748Z,8.88
2019-04-27T01:07:56.297Z,8.78
2019-04-27T01:10:29.309Z,8.62
2019-04-27T01:13:03.244Z,8.49
2019-04-27T01:15:36.569Z,8.49
2019-04-27T01:18:13.237Z,8.36
2019-04-27T01:20:43.450Z,8.34
2019-04-27T01:23:15.559Z,8.16
2019-04-27T01:25:54.771Z,8.02
2019-04-27T01:28:35.437Z,8.02
2019-04-27T01:31:11.134Z,8.03
2019-04-27T01:33:46.362Z,7.97
2019-04-27T01:36:19.085Z,7.83
2019-04-27T01:38:51.478Z,7.83
2019-04-27T01:41:24.907Z,7.91
2019-04-27T01:43:59.006Z,7.89
2019-04-27T01:46:31.468Z,7.97
2019-04-27T01:49:04.261Z,7.94
2019-04-27T01:51:36.529Z,7.95
2019-04-27T01:54:13.719Z,7.98
2019-04-27T01:56:49.398Z,7.92
2019-04-27T01:59:21.845Z,7.91
2019-04-27T02:02:03.347Z,7.91
2019-04-27T02:04:55.041Z,7.89
2019-04-27T02:07:28.034Z,7.88
2019-04-27T02:10:59.450Z,7.88
2019-04-27T02:13:33.925Z,7.89
2019-04-27T02:16:06.346Z,7.85
2019-04-27T02:18:40.169Z,7.81
2019-04-27T02:21:12.674Z,7.74
2019-04-27T02:23:49.705Z,7.74
2019-04-27T02:26:22.423Z,7.71
2019-04-27T02:29:10.300Z,7.61
2019-04-27T02:31:49.904Z,7.51
2019-04-27T02:34:23.310Z,7.50
2019-04-27T02:36:55.679Z,7.35
2019-04-27T02:39:29.828Z,7.35
2019-04-27T02:42:03.970Z,7.23
2019-04-27T02:44:42.322Z,7.16
2019-04-27T02:47:14.751Z,7.11
2019-04-27T02:49:47.291Z,7.11
2019-04-27T02:52:34.643Z,6.75
2019-04-27T02:55:09.618Z,6.75
2019-04-27T02:57:42.288Z,6.87
2019-04-27T03:00:15.330Z,6.59
2019-04-27T03:02:51.072Z,6.62
2019-04-27T03:05:29.333Z,6.62
2019-04-27T03:08:02.419Z,6.66
2019-04-27T03:10:34.699Z,6.69
2019-04-27T03:13:20.080Z,6.60
2019-04-27T03:16:13.023Z,6.51
2019-04-27T03:19:13.395Z,6.47
2019-04-27T03:21:53.783Z,6.38
2019-04-27T03:24:44.361Z,6.26
2019-04-27T03:27:20.131Z,6.21
2019-04-27T03:29:53.294Z,6.10
2019-04-27T03:32:30.794Z,6.10
2019-04-27T03:35:03.621Z,6.14
2019-04-27T03:37:36.314Z,6.05
2019-04-27T03:40:10.875Z,5.87
2019-04-27T03:42:45.268Z,5.87
2019-04-27T03:45:19.984Z,5.92
2019-04-27T03:47:51.260Z,5.92
2019-04-27T03:50:30.346Z,5.98
2019-04-27T03:53:10.294Z,5.91
2019-04-27T03:56:01.296Z,5.89
2019-04-27T03:58:39.657Z,5.91
2019-04-27T04:01:13.101Z,5.80
2019-04-27T04:03:46.393Z,5.75
2019-04-27T04:06:19.350Z,5.89
2019-04-27T04:08:55.076Z,5.81
2019-04-27T04:11:30.295Z,5.81
2019-04-27T04:14:06.402Z,5.84
2019-04-27T04:16:41.355Z,5.94
2019-04-27T04:19:14.207Z,5.83
2019-04-27T04:21:49.647Z,5.83
2019-04-27T04:24:21.587Z,5.87
2019-04-27T04:26:54.037Z,5.79
2019-04-27T04:29:26.792Z,5.73
2019-04-27T04:32:00.506Z,5.83
2019-04-27T04:34:33.295Z,5.79
2019-04-27T04:37:05.859Z,5.91
2019-04-27T04:39:40.318Z,5.91
2019-04-27T04:42:14.284Z,5.95
2019-04-27T04:44:50.226Z,6.26
2019-04-27T04:47:24.872Z,6.26
2019-04-27T04:50:10.283Z,6.46
2019-04-27T04:52:31.372Z,6.66
2019-04-27T04:55:03.586Z,6.81
2019-04-27T04:57:36.010Z,6.93
2019-04-27T05:00:10.049Z,7.03
2019-04-27T05:02:43.621Z,7.11
2019-04-27T05:05:19.210Z,7.19
2019-04-27T05:07:51.837Z,7.36
2019-04-27T05:10:24.330Z,7.50
2019-04-27T05:12:56.638Z,7.77
2019-04-27T05:15:29.994Z,7.77
2019-04-27T05:18:02.351Z,7.92
2019-04-27T05:20:51.990Z,8.02
2019-04-27T05:23:24.317Z,8.02
2019-04-27T05:25:56.675Z,8.41
2019-04-27T05:28:29.834Z,8.41
2019-04-27T05:31:02.421Z,8.62
2019-04-27T05:33:35.781Z,8.70
2019-04-27T05:36:09.202Z,8.72
2019-04-27T05:40:14.299Z,8.96
2019-04-27T05:42:48.885Z,8.96
2019-04-27T05:46:29.813Z,8.96
2019-04-27T05:49:06.205Z,9.00
2019-04-27T05:51:39.979Z,9.21
2019-04-27T05:54:12.328Z,9.38
2019-04-27T05:56:44.578Z,9.67
2019-04-27T06:01:05.269Z,9.78
2019-04-27T06:03:39.405Z,10.03
2019-04-27T06:06:11.562Z,9.93
2019-04-27T06:08:49.344Z,9.93
2019-04-27T06:11:21.236Z,10.23
2019-04-27T06:13:53.780Z,10.33
2019-04-27T06:16:26.289Z,10.50
2019-04-27T06:19:00.599Z,10.88
2019-04-27T06:21:35.410Z,11.01
2019-04-27T06:24:08.745Z,11.24
2019-04-27T06:26:49.830Z,11.26
2019-04-27T06:29:24.038Z,11.55
2019-04-27T06:32:00.966Z,11.55
2019-04-27T06:34:35.511Z,11.56
2019-04-27T06:38:44.625Z,11.88
2019-04-27T06:41:18.974Z,12.11
2019-04-27T06:43:53.068Z,12.10
2019-04-27T06:46:25.349Z,11.84
2019-04-27T06:48:59.308Z,12.20
2019-04-27T06:51:31.257Z,12.59
2019-04-27T06:54:03.465Z,12.55
2019-04-27T06:57:58.983Z,12.55
2019-04-27T07:00:31.413Z,12.54
2019-04-27T07:03:03.251Z,12.21
2019-04-27T07:05:35.753Z,12.57
2019-04-27T07:08:14.299Z,12.30
2019-04-27T07:10:52.765Z,12.30
2019-04-27T07:13:27.041Z,12.48
2019-04-27T07:16:00.339Z,12.83
2019-04-27T07:22:11.457Z,13.26
2019-04-27T07:24:43.641Z,12.88
2019-04-27T07:27:19.129Z,13.07
2019-04-27T07:30:03.054Z,13.38
2019-04-27T07:32:39.075Z,13.33
2019-04-27T07:35:11.775Z,13.78
2019-04-27T07:38:32.364Z,13.78
2019-04-27T07:41:05.283Z,13.78
2019-04-27T07:43:49.739Z,13.82
2019-04-27T07:46:22.327Z,13.90
2019-04-27T07:48:56.607Z,14.04
2019-04-27T07:51:34.046Z,14.29
2019-04-27T07:54:04.671Z,14.36
2019-04-27T07:56:38.965Z,14.19
2019-04-27T07:59:11.795Z,14.46
2019-04-27T08:01:44.497Z,14.46
2019-04-27T08:07:45.505Z,14.09
2019-04-27T08:10:25.132Z,14.09
2019-04-27T08:16:09.300Z,14.25
2019-04-27T08:18:43.606Z,14.57
2019-04-27T08:21:28.897Z,14.57
2019-04-27T08:24:05.395Z,14.64
2019-04-27T08:27:19.327Z,14.61
2019-04-27T08:33:29.636Z,14.52
2019-04-27T08:36:11.897Z,14.51
2019-04-27T08:38:45.904Z,14.64
2019-04-27T08:41:21.038Z,14.91
2019-04-27T08:43:54.356Z,15.47
2019-04-27T08:46:26.265Z,15.47
2019-04-27T08:49:02.009Z,15.34
2019-04-27T08:51:34.818Z,15.08
2019-04-27T08:54:09.086Z,15.47
2019-04-27T08:56:42.053Z,15.53
2019-04-27T08:59:16.448Z,15.57
2019-04-27T09:01:51.021Z,15.37
2019-04-27T09:04:28.804Z,15.02
2019-04-27T09:20:03.888Z,14.43
2019-04-27T09:22:36.705Z,14.36
2019-04-27T09:25:10.067Z,14.24
2019-04-27T09:27:42.901Z,14.13
2019-04-27T09:30:18.957Z,13.95
2019-04-27T09:32:53.521Z,14.02
2019-04-27T09:35:26.794Z,14.33
2019-04-27T09:38:01.438Z,14.47
2019-04-27T09:40:36.055Z,14.35
2019-04-27T09:43:09.328Z,14.26
2019-04-27T09:45:49.354Z,14.27
2019-04-27T09:48:29.785Z,14.27
2019-04-27T09:51:02.567Z,14.35
2019-04-27T09:53:36.451Z,14.69
2019-04-27T09:56:09.316Z,14.50
2019-04-27T09:58:43.823Z,14.28
2019-04-27T10:01:18.159Z,14.38
2019-04-27T10:03:56.918Z,13.84
2019-04-27T10:18:42.499Z,14.86
2019-04-27T10:21:17.551Z,14.86
2019-04-27T10:23:56.642Z,15.40
2019-04-27T10:26:30.577Z,15.77
2019-04-27T10:42:56.792Z,15.45
2019-04-27T10:45:31.467Z,15.18
2019-04-27T10:48:09.857Z,15.61
2019-04-27T10:50:46.993Z,14.90
2019-04-27T10:53:22.328Z,15.25
2019-04-27T10:55:56.406Z,15.31
2019-04-27T10:58:29.346Z,15.31
2019-04-27T11:01:02.788Z,14.71
2019-04-27T11:06:53.296Z,14.48
2019-04-27T11:09:26.390Z,14.49
2019-04-27T11:11:59.570Z,14.49
2019-04-27T11:14:35.311Z,14.38
2019-04-27T11:17:10.320Z,14.38
2019-04-27T11:19:46.024Z,13.81
2019-04-27T11:22:21.820Z,13.81
2019-04-27T11:24:56.396Z,13.80
2019-04-27T11:27:29.285Z,13.77
2019-04-27T11:30:20.064Z,13.27
2019-04-27T11:32:59.033Z,13.59
2019-04-27T11:36:21.400Z,13.52
2019-04-27T11:39:00.504Z,13.64
2019-04-27T11:41:40.545Z,13.82
2019-04-27T11:54:31.558Z,14.08
2019-04-27T11:57:15.308Z,14.19
2019-04-27T11:59:54.357Z,14.35
2019-04-27T12:02:31.651Z,14.35
2019-04-27T12:05:36.934Z,14.55
2019-04-27T12:08:13.493Z,14.34
2019-04-27T12:11:26.387Z,14.44
2019-04-27T12:13:41.290Z,14.80
2019-04-27T12:16:31.669Z,15.69
2019-04-27T12:19:11.754Z,15.85
2019-04-27T12:21:56.396Z,16.34
2019-04-27T12:25:01.114Z,16.34
2019-04-27T12:28:02.141Z,15.88
2019-04-27T12:30:40.167Z,15.91
2019-04-27T12:33:22.044Z,16.42
2019-04-27T12:36:08.450Z,16.20
2019-04-27T12:38:42.486Z,16.36
2019-04-27T12:41:24.354Z,16.28
2019-04-27T12:44:07.145Z,15.38
2019-04-27T12:46:43.839Z,15.17
2019-04-27T12:49:19.312Z,15.18
2019-04-27T12:51:58.961Z,15.86
2019-04-27T12:55:06.591Z,16.36
2019-04-27T12:58:00.567Z,18.40
2019-04-27T13:00:40.815Z,17.78
2019-04-27T13:03:20.648Z,16.92
2019-04-27T13:05:59.324Z,16.57
2019-04-27T13:08:33.457Z,16.25
2019-04-27T13:11:09.503Z,16.25
2019-04-27T13:13:57.495Z,16.02
2019-04-27T13:16:30.412Z,15.73
2019-04-27T13:19:08.328Z,16.24
2019-04-27T13:21:47.763Z,17.33
2019-04-27T13:24:31.829Z,16.31
2019-04-27T13:27:07.438Z,16.11
2019-04-27T13:29:46.551Z,16.11
2019-04-27T13:32:19.294Z,16.29
2019-04-27T13:34:52.838Z,17.90
2019-04-27T13:37:42.797Z,19.18
2019-04-27T13:40:20.375Z,18.98
2019-04-27T13:43:03.689Z,18.61
2019-04-27T13:45:49.811Z,18.61
2019-04-27T13:48:27.919Z,17.44
2019-04-27T13:51:02.295Z,16.86
2019-04-27T13:53:36.819Z,15.76
2019-04-27T13:56:18.297Z,15.76
2019-04-27T13:59:01.070Z,15.37
2019-04-27T14:02:02.903Z,15.37
2019-04-27T14:04:36.636Z,15.51
2019-04-27T14:07:20.838Z,15.93
2019-04-27T14:09:56.684Z,15.66
2019-04-27T14:18:49.185Z,14.95
2019-04-27T14:21:24.348Z,14.79
2019-04-27T14:24:12.987Z,14.85
2019-04-27T14:26:57.340Z,14.85
2019-04-27T14:29:33.659Z,14.79
2019-04-27T15:01:12.675Z,12.32
2019-04-27T15:04:27.095Z,10.59
2019-04-27T15:07:14.584Z,9.46
2019-04-27T15:13:43.102Z,9.47
2019-04-27T15:17:06.773Z,9.44
2019-04-27T15:20:06.837Z,9.07
2019-04-27T15:23:05.351Z,8.87
2019-04-27T15:25:52.116Z,8.89
2019-04-27T15:28:44.818Z,9.10
2019-04-27T15:34:58.809Z,9.29
2019-04-27T15:41:35.562Z,9.13
2019-04-27T15:44:36.407Z,9.26
2019-04-27T15:51:54.654Z,9.67
2019-04-27T15:57:56.440Z,11.54
2019-04-27T16:00:29.236Z,11.06
2019-04-27T16:03:02.980Z,10.60
2019-04-27T16:05:36.737Z,10.60
2019-04-27T16:08:15.215Z,10.92
2019-04-27T16:10:43.622Z,11.11
2019-04-27T16:13:18.042Z,10.69
2019-04-27T16:15:54.075Z,10.57
2019-04-27T16:18:31.007Z,10.51
2019-04-27T16:21:02.824Z,10.48
2019-04-27T16:23:42.739Z,10.73
2019-04-27T16:26:14.997Z,10.84
2019-04-27T16:28:53.256Z,11.01
2019-04-27T16:31:29.174Z,11.21
2019-04-27T16:34:02.856Z,11.38
2019-04-27T16:36:37.811Z,11.92
2019-04-27T16:39:14.522Z,12.07
2019-04-27T16:41:50.096Z,11.61
2019-04-27T16:44:22.807Z,11.40
2019-04-27T16:47:17.583Z,11.49
2019-04-27T16:59:26.762Z,10.90
2019-04-27T17:01:56.197Z,10.74
2019-04-27T17:04:31.556Z,10.71
2019-04-27T17:08:49.460Z,10.77
2019-04-27T17:11:21.749Z,10.66
2019-04-27T17:13:58.974Z,10.59
2019-04-27T17:16:39.464Z,10.59
2019-04-27T17:19:14.869Z,10.54
2019-04-27T17:21:48.502Z,10.66
2019-04-27T17:24:41.989Z,10.98
2019-04-27T17:27:11.646Z,11.29
2019-04-27T17:29:49.976Z,10.85
2019-04-27T17:32:30.228Z,10.68
2019-04-27T17:35:04.937Z,10.76
2019-04-27T17:37:35.814Z,10.61
2019-04-27T17:40:09.528Z,10.56
2019-04-27T17:42:42.443Z,10.46
2019-04-27T17:45:15.419Z,10.33
2019-04-27T17:47:48.341Z,10.33
2019-04-27T17:50:25.125Z,10.23
2019-04-27T17:52:59.113Z,10.23
2019-04-27T17:55:31.783Z,10.19
2019-04-27T17:58:05.154Z,10.18
2019-04-27T18:00:43.128Z,10.19
2019-04-27T18:03:17.536Z,10.17
2019-04-27T18:05:49.324Z,10.28
2019-04-27T18:08:25.320Z,9.90
2019-04-27T18:11:03.014Z,9.90
2019-04-27T18:13:32.506Z,9.76
2019-04-27T18:16:05.695Z,9.54
2019-04-27T18:18:43.369Z,9.44
2019-04-27T18:21:19.469Z,8.94
2019-04-27T18:24:01.414Z,8.94
2019-04-27T18:26:49.239Z,9.00
2019-04-27T18:29:18.327Z,9.00
2019-04-27T18:31:54.425Z,8.78
2019-04-27T18:34:25.678Z,8.79
2019-04-27T18:36:58.370Z,8.80
2019-04-27T18:39:31.335Z,8.79
2019-04-27T18:42:04.648Z,8.83
2019-04-27T18:44:38.150Z,8.81
2019-04-27T18:47:13.762Z,8.55
2019-04-27T18:49:55.347Z,8.55
2019-04-27T18:52:49.608Z,8.59
2019-04-27T18:55:21.019Z,8.36
2019-04-27T18:57:55.846Z,8.36
2019-04-27T19:00:31.248Z,8.35
2019-04-27T19:03:04.311Z,8.36
2019-04-27T19:05:40.478Z,8.29
2019-04-27T19:08:13.091Z,8.29
2019-04-27T19:10:45.802Z,8.20
2019-04-27T19:13:19.187Z,8.13
2019-04-27T19:15:52.064Z,7.86
2019-04-27T19:18:26.473Z,7.36
2019-04-27T19:21:04.897Z,7.36
2019-04-27T19:23:38.194Z,7.19
2019-04-27T19:26:16.521Z,7.00
2019-04-27T19:29:08.452Z,6.94
2019-04-27T19:31:43.580Z,7.06
2019-04-27T19:34:17.704Z,7.10
2019-04-27T19:36:50.854Z,7.15
2019-04-27T19:39:23.508Z,7.16
2019-04-27T19:42:00.801Z,6.77
2019-04-27T19:44:31.594Z,6.48
2019-04-27T19:47:06.055Z,6.27
2019-04-27T19:49:38.832Z,6.09
2019-04-27T19:52:11.468Z,6.05
2019-04-27T19:54:44.289Z,5.77
2019-04-27T19:57:29.298Z,5.57
2019-04-27T19:59:52.335Z,5.57
2019-04-27T20:02:28.796Z,5.63
2019-04-27T20:05:03.401Z,5.63
2019-04-27T20:07:38.065Z,5.69
2019-04-27T20:10:11.018Z,5.55
2019-04-27T20:12:43.572Z,5.78
2019-04-27T20:15:16.306Z,5.78
2019-04-27T20:17:50.753Z,5.65
2019-04-27T20:20:23.389Z,5.65
2019-04-27T20:22:56.307Z,5.53
2019-04-27T20:25:28.774Z,5.58
2019-04-27T20:28:01.385Z,5.58
2019-04-27T20:30:35.399Z,5.45
2019-04-27T20:33:10.905Z,5.51
2019-04-27T20:35:43.912Z,5.54
2019-04-27T20:38:16.723Z,5.54
2019-04-27T20:40:51.032Z,5.54
2019-04-27T20:43:24.797Z,5.65
2019-04-27T20:45:57.445Z,5.71
2019-04-27T20:48:31.305Z,5.76
2019-04-27T20:51:04.035Z,5.66
2019-04-27T20:53:38.412Z,5.73
2019-04-27T20:56:11.294Z,5.67
2019-04-27T20:58:44.350Z,5.52
2019-04-27T21:01:18.674Z,5.52
2019-04-27T21:03:52.885Z,5.43
2019-04-27T21:06:41.021Z,5.44
2019-04-27T21:09:17.494Z,5.44
2019-04-27T21:11:50.640Z,5.45
2019-04-27T21:14:23.316Z,5.51
2019-04-27T21:16:57.135Z,5.51
2019-04-27T21:19:31.220Z,5.49
2019-04-27T21:22:07.371Z,5.53
2019-04-27T21:24:41.347Z,5.55
2019-04-27T21:27:13.291Z,5.55
2019-04-27T21:29:45.800Z,5.57
2019-04-27T21:32:20.477Z,5.61
2019-04-27T21:34:54.326Z,5.60
2019-04-27T21:37:27.798Z,5.60
2019-04-27T21:40:21.399Z,5.57
2019-04-27T21:42:54.352Z,5.53
2019-04-27T21:45:31.848Z,5.52
2019-04-27T21:48:04.851Z,5.47
2019-04-27T21:50:37.423Z,5.46
2019-04-27T21:53:16.500Z,5.40
2019-04-27T21:55:53.128Z,5.40
2019-04-27T21:58:28.831Z,5.30
2019-04-27T22:01:13.195Z,5.23
2019-04-27T22:03:48.501Z,5.23
2019-04-27T22:06:21.486Z,5.17
2019-04-27T22:08:54.313Z,5.16
2019-04-27T22:11:27.867Z,5.16
2019-04-27T22:14:01.354Z,5.13
2019-04-27T22:16:34.309Z,5.04
2019-04-27T22:19:07.558Z,4.97
2019-04-27T22:22:51.541Z,5.07
2019-04-27T22:25:39.482Z,5.02
2019-04-27T22:28:12.309Z,5.02
2019-04-27T22:30:44.799Z,5.17
2019-04-27T22:33:17.349Z,5.17
2019-04-27T22:35:51.653Z,5.17
2019-04-27T22:38:24.379Z,5.24
2019-04-27T22:41:03.505Z,5.19
2019-04-27T22:43:44.554Z,5.19
2019-04-27T22:46:18.503Z,5.24
2019-04-27T22:48:51.790Z,5.19
2019-04-27T22:53:54.437Z,5.16
2019-04-27T22:56:29.045Z,5.08
2019-04-27T22:59:07.048Z,4.95
2019-04-27T23:01:45.308Z,4.92
2019-04-27T23:04:22.590Z,4.91
2019-04-27T23:06:55.295Z,4.91
2019-04-27T23:09:28.827Z,4.93
2019-04-27T23:12:01.871Z,4.87
2019-04-27T23:14:35.335Z,4.81
2019-04-27T23:17:25.323Z,4.79
2019-04-27T23:19:58.839Z,4.52
2019-04-27T23:22:31.607Z,4.52
2019-04-27T23:25:05.026Z,4.74
2019-04-27T23:27:37.552Z,4.63
2019-04-27T23:30:11.707Z,4.58
2019-04-27T23:32:47.880Z,4.69
2019-04-27T23:35:20.425Z,4.56
2019-04-27T23:37:52.831Z,4.52
2019-04-27T23:40:25.594Z,4.43
2019-04-27T23:42:59.410Z,4.35
2019-04-27T23:45:31.819Z,4.48
2019-04-27T23:48:04.304Z,4.46
2019-04-27T23:50:37.512Z,4.50
2019-04-27T23:53:17.390Z,4.50
2019-04-27T23:55:49.873Z,4.42
2019-04-27T23:58:22.518Z,4.55
